Time;durP1;ratioP1;P1;durP2;ratioP2;P2;SDS_P1;SDS_P2;PMS_P1;PMS_P2;Temp;Humidity;BMP_temperature;BMP_pressure;BME280_temperature;BME280_humidity;BME280_pressure;Samples;Min_cycle;Max_cycle;Signal;HPM_P1;HPM_P2
2021/04/07 00:00:37;;;;;;;53.70;18.80;;;3.40;58.10;;;;;;5035152;28;20021;-69
2021/04/07 00:03:04;;;;;;;40.07;14.30;;;3.40;58.20;;;;;;5052728;28;20036;-69
2021/04/07 00:05:43;;;;;;;37.77;12.47;;;3.40;58.40;;;;;;5052994;28;20469;-69
2021/04/07 00:08:09;;;;;;;33.03;11.50;;;3.30;58.30;;;;;;5052618;28;20047;-70
2021/04/07 00:10:38;;;;;;;19.50;8.10;;;3.20;59.10;;;;;;5052802;28;20437;-69
2021/04/07 00:13:06;;;;;;;17.63;6.70;;;3.10;58.90;;;;;;5052913;28;20044;-69
2021/04/07 00:15:32;;;;;;;12.37;5.43;;;3.10;59.60;;;;;;5052882;28;20054;-70
2021/04/07 00:17:58;;;;;;;10.17;4.97;;;3.00;60.00;;;;;;5052864;28;20032;-69
2021/04/07 00:20:25;;;;;;;9.53;4.30;;;3.00;59.80;;;;;;5054173;28;20477;-69
2021/04/07 00:22:51;;;;;;;11.93;5.73;;;3.00;61.10;;;;;;5056792;28;20075;-69
2021/04/07 00:25:18;;;;;;;7.40;4.17;;;3.00;60.60;;;;;;5056726;28;20048;-69
2021/04/07 00:27:52;;;;;;;7.50;3.67;;;2.90;60.50;;;;;;5056864;28;20372;-69
2021/04/07 00:30:20;;;;;;;8.00;3.63;;;2.90;60.60;;;;;;5056730;28;20481;-69
2021/04/07 00:32:46;;;;;;;9.73;4.20;;;2.90;60.70;;;;;;5039043;28;20124;-69
2021/04/07 00:35:12;;;;;;;6.70;3.87;;;2.90;59.70;;;;;;5057144;28;20076;-68
2021/04/07 00:37:38;;;;;;;7.37;4.03;;;2.90;59.80;;;;;;5056729;28;20029;-68
2021/04/07 00:40:05;;;;;;;6.13;3.73;;;2.80;60.30;;;;;;5056500;28;20096;-68
2021/04/07 00:42:35;;;;;;;8.67;4.03;;;2.80;60.60;;;;;;5056314;28;20453;-68
2021/04/07 00:45:01;;;;;;;9.60;4.60;;;2.80;60.60;;;;;;5056488;28;20031;-68
2021/04/07 00:47:27;;;;;;;8.10;4.37;;;2.80;60.50;;;;;;5056487;28;20025;-68
2021/04/07 00:49:52;;;;;;;8.03;3.87;;;2.80;61.00;;;;;;5056197;28;20033;-68
2021/04/07 00:52:18;;;;;;;7.27;3.10;;;2.80;61.40;;;;;;5056510;28;20362;-68
2021/04/07 00:54:44;;;;;;;9.20;2.90;;;2.80;61.30;;;;;;5056413;28;20017;-68
2021/04/07 00:57:11;;;;;;;7.93;3.30;;;2.80;60.60;;;;;;5056508;28;20017;-68
2021/04/07 00:59:37;;;;;;;7.20;2.97;;;2.80;60.00;;;;;;5052933;28;20477;-68
2021/04/07 01:02:03;;;;;;;5.87;2.77;;;2.80;61.80;;;;;;5053263;28;20046;-68
2021/04/07 01:04:29;;;;;;;3.43;2.00;;;2.70;60.60;;;;;;5054281;28;20050;-68
2021/04/07 01:06:57;;;;;;;3.27;1.80;;;2.70;60.80;;;;;;5055430;28;20025;-69
2021/04/07 01:09:23;;;;;;;4.80;1.80;;;2.80;60.30;;;;;;5055603;28;20029;-68
2021/04/07 01:11:49;;;;;;;4.13;2.00;;;2.70;60.40;;;;;;5055700;28;20028;-68
2021/04/07 01:14:14;;;;;;;4.17;2.00;;;2.70;59.90;;;;;;5055751;28;20029;-68
2021/04/07 01:16:41;;;;;;;3.77;2.00;;;2.80;60.00;;;;;;5055634;28;20377;-68
2021/04/07 01:19:08;;;;;;;3.23;1.53;;;2.70;59.30;;;;;;5055560;28;20040;-68
2021/04/07 01:21:35;;;;;;;5.03;2.30;;;2.70;59.80;;;;;;5055190;28;20017;-68
2021/04/07 01:24:01;;;;;;;3.00;2.00;;;2.70;59.90;;;;;;5055503;28;20024;-68
2021/04/07 01:26:26;;;;;;;4.30;2.30;;;2.70;60.20;;;;;;5055745;28;20028;-68
2021/04/07 01:28:52;;;;;;;5.43;2.17;;;2.70;61.70;;;;;;5055394;28;20028;-68
2021/04/07 01:31:18;;;;;;;7.53;2.63;;;2.60;61.60;;;;;;5055163;28;20385;-68
2021/04/07 01:33:44;;;;;;;3.80;2.10;;;2.60;61.10;;;;;;5055276;28;20052;-68
2021/04/07 01:36:10;;;;;;;4.83;2.80;;;2.60;61.40;;;;;;5055126;28;20028;-68
2021/04/07 01:38:35;;;;;;;6.07;2.93;;;2.60;61.00;;;;;;5055130;28;20025;-68
2021/04/07 01:41:01;;;;;;;10.17;3.83;;;2.60;61.40;;;;;;5055136;28;20056;-68
2021/04/07 01:43:28;;;;;;;5.90;2.70;;;2.60;61.10;;;;;;5054823;28;20070;-68
2021/04/07 01:45:55;;;;;;;5.27;2.90;;;2.60;61.60;;;;;;5055122;28;20021;-68
2021/04/07 01:48:21;;;;;;;6.27;2.90;;;2.60;61.40;;;;;;5054950;28;20029;-68
2021/04/07 01:50:48;;;;;;;8.17;2.70;;;2.50;60.50;;;;;;5054677;28;20136;-68
2021/04/07 01:53:19;;;;;;;7.40;3.10;;;2.40;61.00;;;;;;5055221;28;20118;-68
2021/04/07 01:55:44;;;;;;;6.60;3.63;;;2.40;60.80;;;;;;5054829;28;20568;-68
2021/04/07 01:58:11;;;;;;;8.37;3.53;;;2.40;61.30;;;;;;5054676;28;20115;-68
2021/04/07 02:00:37;;;;;;;8.63;3.07;;;2.30;61.80;;;;;;5055146;28;20139;-68
2021/04/07 02:03:05;;;;;;;5.37;3.13;;;2.30;62.10;;;;;;5055081;28;20115;-68
2021/04/07 02:05:31;;;;;;;6.13;3.33;;;2.30;62.60;;;;;;5055177;28;20036;-68
2021/04/07 02:07:57;;;;;;;6.10;3.07;;;2.30;62.00;;;;;;5054716;28;20029;-68
2021/04/07 02:10:23;;;;;;;6.13;2.70;;;2.40;62.50;;;;;;5054939;28;20485;-69
2021/04/07 02:12:57;;;;;;;5.73;3.13;;;2.40;62.00;;;;;;5054950;28;20037;-68
2021/04/07 02:15:25;;;;;;;5.03;2.87;;;2.40;61.60;;;;;;5054799;28;20377;-69
2021/04/07 02:17:52;;;;;;;4.40;2.57;;;2.40;62.30;;;;;;5054708;28;20485;-69
2021/04/07 02:20:19;;;;;;;7.37;2.93;;;2.40;62.50;;;;;;5054453;28;20021;-68
2021/04/07 02:22:50;;;;;;;9.80;3.10;;;2.40;62.30;;;;;;5054602;28;20047;-69
2021/04/07 02:25:16;;;;;;;6.57;2.60;;;2.40;62.80;;;;;;5054792;28;20051;-68
2021/04/07 02:27:43;;;;;;;4.33;2.37;;;2.30;61.90;;;;;;5054550;28;20116;-68
2021/04/07 02:30:13;;;;;;;4.20;2.20;;;2.30;62.30;;;;;;5053081;28;20384;-69
2021/04/07 02:32:39;;;;;;;7.10;2.30;;;2.30;62.10;;;;;;5054129;28;20041;-69
2021/04/07 02:35:06;;;;;;;5.13;1.97;;;2.30;62.20;;;;;;5054554;28;20025;-69
2021/04/07 02:37:32;;;;;;;6.20;2.30;;;2.30;61.90;;;;;;5054459;28;20048;-69
2021/04/07 02:39:58;;;;;;;7.97;1.87;;;2.30;61.50;;;;;;5054141;28;20492;-69
2021/04/07 02:42:24;;;;;;;5.23;2.30;;;2.30;61.80;;;;;;5053917;28;20102;-69
2021/04/07 02:44:50;;;;;;;10.73;2.70;;;2.30;62.30;;;;;;5053934;28;20025;-69
2021/04/07 02:47:16;;;;;;;5.30;2.20;;;2.30;61.90;;;;;;5054288;28;20033;-69
2021/04/07 02:49:42;;;;;;;4.87;1.93;;;2.30;62.30;;;;;;5054082;28;20520;-68
2021/04/07 02:52:08;;;;;;;4.30;2.03;;;2.30;62.30;;;;;;5054162;28;20154;-68
2021/04/07 02:54:34;;;;;;;3.73;1.80;;;2.20;61.60;;;;;;5054081;28;20100;-68
2021/04/07 02:57:00;;;;;;;4.20;1.50;;;2.20;61.80;;;;;;5054216;28;20070;-68
2021/04/07 02:59:26;;;;;;;5.37;1.80;;;2.20;61.70;;;;;;5052850;28;20028;-68
2021/04/07 03:01:51;;;;;;;6.07;1.90;;;2.10;60.70;;;;;;5054066;28;20462;-68
2021/04/07 03:04:17;;;;;;;3.07;1.57;;;2.10;61.80;;;;;;5054072;28;20036;-68
2021/04/07 03:06:44;;;;;;;3.37;1.70;;;2.10;61.20;;;;;;5053858;28;20044;-69
2021/04/07 03:09:11;;;;;;;4.30;2.03;;;2.10;61.20;;;;;;5053680;28;20106;-69
2021/04/07 03:11:37;;;;;;;4.70;1.90;;;2.10;61.00;;;;;;5053919;28;20023;-70
2021/04/07 03:14:04;;;;;;;2.27;1.43;;;2.00;61.40;;;;;;5053896;28;20033;-68
2021/04/07 03:16:30;;;;;;;6.90;1.67;;;2.00;62.60;;;;;;5053940;28;20142;-68
2021/04/07 03:18:55;;;;;;;3.03;1.50;;;2.00;63.20;;;;;;5053452;28;20496;-68
2021/04/07 03:21:21;;;;;;;4.60;1.60;;;1.90;63.50;;;;;;5053725;28;20051;-68
2021/04/07 03:23:47;;;;;;;3.10;1.50;;;1.90;62.80;;;;;;5053683;28;20029;-68
2021/04/07 03:26:12;;;;;;;4.17;1.50;;;1.90;62.90;;;;;;5053234;28;20037;-68
2021/04/07 03:28:38;;;;;;;5.00;2.00;;;2.00;62.40;;;;;;5053235;28;20482;-68
2021/04/07 03:31:04;;;;;;;3.70;1.70;;;2.00;62.10;;;;;;5053246;28;20036;-68
2021/04/07 03:33:33;;;;;;;3.73;1.80;;;2.00;62.10;;;;;;5053598;28;20120;-68
2021/04/07 03:36:00;;;;;;;5.10;1.60;;;2.00;61.10;;;;;;5053701;28;20415;-68
2021/04/07 03:38:26;;;;;;;3.20;1.77;;;2.00;62.20;;;;;;5053477;28;20104;-68
2021/04/07 03:40:52;;;;;;;3.87;2.20;;;2.00;61.80;;;;;;5053425;28;20106;-68
2021/04/07 03:43:20;;;;;;;2.50;1.53;;;2.10;61.60;;;;;;5053348;28;20497;-68
2021/04/07 03:45:48;;;;;;;3.10;1.90;;;2.10;61.20;;;;;;5053401;28;20385;-68
2021/04/07 03:48:19;;;;;;;3.03;1.43;;;2.00;61.20;;;;;;5053252;28;20025;-68
2021/04/07 03:50:46;;;;;;;3.00;1.33;;;2.00;60.80;;;;;;5053345;28;20102;-68
2021/04/07 03:53:13;;;;;;;2.47;1.40;;;2.00;61.50;;;;;;5053231;28;20039;-68
2021/04/07 03:55:40;;;;;;;3.00;1.50;;;2.00;61.10;;;;;;5052879;28;20017;-68
2021/04/07 03:58:06;;;;;;;3.50;1.53;;;1.90;61.50;;;;;;5053171;28;20052;-68
2021/04/07 04:00:32;;;;;;;4.63;1.60;;;1.90;61.10;;;;;;5052955;28;20056;-68
2021/04/07 04:02:58;;;;;;;4.30;2.07;;;1.90;61.00;;;;;;5052923;28;20502;-68
2021/04/07 04:05:24;;;;;;;7.33;2.90;;;1.90;61.20;;;;;;5052824;28;20044;-68
2021/04/07 04:07:50;;;;;;;5.23;2.60;;;1.90;61.70;;;;;;5052721;28;20025;-68
2021/04/07 04:10:16;;;;;;;6.90;2.60;;;1.80;62.40;;;;;;5052736;28;20071;-68
2021/04/07 04:12:42;;;;;;;5.50;2.40;;;1.80;62.60;;;;;;5052908;28;20493;-68
2021/04/07 04:15:09;;;;;;;7.13;2.60;;;1.80;62.60;;;;;;5052953;28;20053;-68
2021/04/07 04:17:40;;;;;;;9.90;2.70;;;1.70;63.20;;;;;;5053225;28;20025;-68
2021/04/07 04:20:06;;;;;;;8.07;3.00;;;1.70;63.80;;;;;;5052872;28;20032;-68
2021/04/07 04:22:33;;;;;;;13.47;4.20;;;1.70;63.90;;;;;;5052834;28;20025;-68
2021/04/07 04:24:59;;;;;;;11.63;4.93;;;1.70;63.50;;;;;;5052794;28;20025;-68
2021/04/07 04:27:25;;;;;;;24.47;7.67;;;1.80;63.00;;;;;;5053080;28;20020;-68
2021/04/07 04:29:50;;;;;;;34.00;10.77;;;1.80;63.50;;;;;;5052958;28;20052;-69
2021/04/07 04:32:16;;;;;;;36.33;11.47;;;1.80;64.10;;;;;;5052889;28;20145;-68
2021/04/07 04:34:42;;;;;;;47.83;12.83;;;1.80;64.30;;;;;;5052679;28;20393;-69
2021/04/07 04:37:08;;;;;;;33.60;11.17;;;1.70;64.70;;;;;;5052715;28;20021;-68
2021/04/07 04:39:34;;;;;;;32.87;10.83;;;1.80;64.90;;;;;;5052663;28;20033;-68
2021/04/07 04:42:00;;;;;;;28.50;11.60;;;1.80;64.90;;;;;;5052964;28;20025;-69
2021/04/07 04:44:26;;;;;;;31.43;10.80;;;1.70;64.60;;;;;;5052900;28;20029;-69
2021/04/07 04:46:52;;;;;;;25.53;10.17;;;1.70;65.00;;;;;;5052574;28;20031;-69
2021/04/07 04:49:17;;;;;;;26.07;8.50;;;1.70;64.50;;;;;;5052261;28;20543;-69
2021/04/07 04:51:43;;;;;;;24.10;9.17;;;1.70;64.50;;;;;;5052656;28;20036;-69
2021/04/07 04:54:09;;;;;;;26.37;8.73;;;1.70;65.00;;;;;;5052371;28;20033;-69
2021/04/07 04:56:40;;;;;;;26.87;8.33;;;1.70;63.70;;;;;;5052708;28;20025;-69
2021/04/07 04:59:07;;;;;;;22.47;10.00;;;1.80;63.50;;;;;;5052412;28;20025;-69
2021/04/07 05:01:33;;;;;;;29.77;9.67;;;1.70;62.90;;;;;;5052224;28;20469;-69
2021/04/07 05:04:01;;;;;;;34.53;14.77;;;1.70;64.20;;;;;;5052163;28;20075;-69
2021/04/07 05:06:27;;;;;;;40.33;13.87;;;1.70;65.00;;;;;;5053301;28;20111;-69
2021/04/07 05:08:53;;;;;;;60.67;22.87;;;1.70;66.10;;;;;;5056047;28;20021;-69
2021/04/07 05:11:18;;;;;;;60.10;19.07;;;1.80;64.20;;;;;;5055735;28;20086;-69
2021/04/07 05:13:44;;;;;;;49.37;17.63;;;1.80;64.10;;;;;;5056009;28;20389;-69
2021/04/07 05:16:10;;;;;;;52.70;16.80;;;1.70;64.90;;;;;;5055745;28;20044;-69
2021/04/07 05:18:35;;;;;;;49.73;17.60;;;1.70;64.30;;;;;;5055916;28;20021;-69
2021/04/07 05:21:01;;;;;;;45.13;15.33;;;1.70;64.80;;;;;;5055679;28;20076;-69
2021/04/07 05:23:27;;;;;;;36.73;13.57;;;1.60;65.40;;;;;;5055919;28;20446;-69
2021/04/07 05:25:53;;;;;;;31.20;12.60;;;1.60;66.90;;;;;;5055882;28;20074;-69
2021/04/07 05:28:19;;;;;;;42.13;15.13;;;1.60;66.90;;;;;;5055928;28;20428;-69
2021/04/07 05:31:00;;;;;;;49.93;17.27;;;1.60;66.20;;;;;;5055342;28;20017;-69
2021/04/07 05:33:32;;;;;;;46.50;15.47;;;1.70;65.50;;;;;;5055733;28;20029;-69
2021/04/07 05:36:01;;;;;;;29.77;11.57;;;1.80;65.90;;;;;;5055933;28;20039;-69
2021/04/07 05:38:27;;;;;;;23.07;9.50;;;1.80;65.60;;;;;;5055849;28;20029;-69
2021/04/07 05:40:56;;;;;;;20.33;8.10;;;1.80;65.50;;;;;;5055682;28;20094;-69
2021/04/07 05:43:24;;;;;;;24.33;8.47;;;1.80;65.70;;;;;;5055659;28;20033;-69
2021/04/07 05:45:51;;;;;;;15.90;7.03;;;1.80;65.50;;;;;;5055537;28;20393;-69
2021/04/07 05:48:17;;;;;;;13.67;5.80;;;1.90;65.50;;;;;;5055601;28;20488;-69
2021/04/07 05:50:48;;;;;;;15.07;6.37;;;1.90;65.10;;;;;;5055207;28;20052;-69
2021/04/07 05:53:14;;;;;;;14.20;5.27;;;1.90;64.80;;;;;;5055007;28;20166;-69
2021/04/07 05:55:47;;;;;;;12.73;5.23;;;1.90;64.90;;;;;;5055431;28;20596;-69
2021/04/07 05:58:14;;;;;;;13.17;4.60;;;2.00;66.10;;;;;;5055358;28;20036;-69
2021/04/07 06:00:41;;;;;;;11.50;4.10;;;2.00;65.90;;;;;;5055018;28;20027;-69
2021/04/07 06:03:07;;;;;;;14.23;3.70;;;2.10;65.70;;;;;;5055126;28;20083;-69
2021/04/07 06:05:38;;;;;;;12.97;3.77;;;2.10;65.30;;;;;;5055116;28;20029;-70
2021/04/07 06:08:05;;;;;;;10.43;3.93;;;2.20;64.80;;;;;;5055305;28;20438;-69
2021/04/07 06:10:32;;;;;;;10.43;3.70;;;2.30;65.10;;;;;;5036933;28;20021;-73
2021/04/07 06:13:00;;;;;;;15.57;4.63;;;2.40;65.40;;;;;;5054832;28;20120;-69
2021/04/07 06:15:26;;;;;;;7.60;4.27;;;2.50;65.10;;;;;;5050216;28;20030;-69
2021/04/07 06:18:04;;;;;;;13.23;4.60;;;2.50;64.60;;;;;;5053706;28;20057;-69
2021/04/07 06:20:34;;;;;;;9.97;4.27;;;2.60;64.10;;;;;;5054545;28;20017;-68
2021/04/07 06:23:00;;;;;;;11.60;4.47;;;2.70;63.70;;;;;;5053449;28;20057;-68
2021/04/07 06:25:27;;;;;;;10.17;4.27;;;2.80;63.00;;;;;;5053434;28;20098;-72
2021/04/07 06:27:59;;;;;;;10.23;3.57;;;2.80;61.90;;;;;;5033392;28;20029;-68
2021/04/07 06:33:23;;;;;;;7.23;3.23;;;3.00;61.40;;;;;;5049384;28;20189;-74
2021/04/07 06:35:50;;;;;;;13.17;4.50;;;3.00;60.60;;;;;;5052836;28;20075;-68
2021/04/07 06:38:18;;;;;;;18.90;6.60;;;3.10;60.30;;;;;;5051052;28;20029;-69
2021/04/07 06:40:45;;;;;;;17.97;7.90;;;3.20;59.70;;;;;;5051394;28;20096;-70
2021/04/07 06:43:12;;;;;;;17.43;8.13;;;3.20;60.00;;;;;;5049060;28;20031;-69
2021/04/07 06:45:39;;;;;;;15.13;8.47;;;3.30;60.30;;;;;;5033604;28;20025;-70
2021/04/07 06:48:07;;;;;;;14.40;7.60;;;3.30;61.30;;;;;;5053581;28;20074;-69
2021/04/07 06:50:32;;;;;;;15.03;7.23;;;3.30;61.00;;;;;;5032780;28;20041;-70
2021/04/07 06:53:00;;;;;;;13.40;6.53;;;3.40;61.20;;;;;;5027430;28;20041;-69
2021/04/07 06:55:27;;;;;;;8.60;4.40;;;3.40;61.40;;;;;;5022355;28;20025;-70
2021/04/07 06:57:54;;;;;;;11.23;5.27;;;3.40;60.60;;;;;;5027561;28;20025;-69
2021/04/07 07:00:21;;;;;;;15.63;5.60;;;3.50;60.10;;;;;;5029687;28;20148;-70
2021/04/07 07:02:46;;;;;;;9.03;3.87;;;3.50;60.80;;;;;;5029554;28;20028;-69
2021/04/07 07:05:15;;;;;;;9.43;3.70;;;3.50;61.30;;;;;;5026908;28;20033;-69
2021/04/07 07:07:40;;;;;;;7.43;3.77;;;3.60;60.70;;;;;;5039887;28;20124;-69
2021/04/07 07:10:07;;;;;;;6.10;3.50;;;3.70;59.70;;;;;;5027310;28;20116;-69
2021/04/07 07:12:33;;;;;;;5.87;2.73;;;3.70;58.80;;;;;;5024693;28;20029;-69
2021/04/07 07:15:02;;;;;;;11.80;5.90;;;3.80;58.40;;;;;;5027083;28;20025;-69
2021/04/07 07:17:30;;;;;;;10.90;5.90;;;3.80;58.80;;;;;;5031503;28;20298;-69
2021/04/07 07:19:57;;;;;;;11.47;5.30;;;3.80;59.60;;;;;;5032326;28;20037;-69
2021/04/07 07:22:28;;;;;;;11.40;4.03;;;3.90;60.30;;;;;;5029326;28;20025;-69
2021/04/07 07:24:59;;;;;;;11.07;4.63;;;3.90;60.20;;;;;;5031507;28;20482;-69
2021/04/07 07:27:44;;;;;;;15.83;4.87;;;3.90;60.10;;;;;;5030881;28;20143;-68
2021/04/07 07:30:14;;;;;;;13.37;4.80;;;4.00;60.30;;;;;;5031974;28;20482;-69
2021/04/07 07:32:44;;;;;;;9.90;4.83;;;4.10;59.80;;;;;;5019858;28;20041;-69
2021/04/07 07:35:15;;;;;;;16.03;5.77;;;4.20;59.20;;;;;;5011733;28;20022;-68
2021/04/07 07:37:43;;;;;;;14.20;3.80;;;4.20;58.90;;;;;;5024621;28;20395;-68
2021/04/07 07:40:22;;;;;;;13.60;4.67;;;4.30;58.20;;;;;;5033384;28;20676;-68
2021/04/07 07:42:48;;;;;;;9.87;3.93;;;4.40;58.20;;;;;;5031591;28;20064;-68
2021/04/07 07:45:23;;;;;;;10.63;3.77;;;4.40;57.90;;;;;;5025004;28;20148;-69
2021/04/07 07:47:59;;;;;;;8.20;3.30;;;4.50;57.40;;;;;;5013398;28;20037;-68
2021/04/07 07:50:44;;;;;;;7.30;3.03;;;4.60;56.40;;;;;;5025139;28;20045;-69
2021/04/07 07:53:23;;;;;;;9.77;4.23;;;4.70;55.40;;;;;;5033401;28;20045;-69
2021/04/07 07:55:54;;;;;;;7.47;3.40;;;4.70;55.80;;;;;;5033176;28;20028;-69
2021/04/07 07:58:24;;;;;;;6.67;2.80;;;4.80;56.70;;;;;;5033411;28;20021;-69
2021/04/07 08:00:50;;;;;;;5.83;3.03;;;4.90;54.70;;;;;;5015444;28;20025;-70
2021/04/07 08:03:16;;;;;;;4.07;2.57;;;4.90;54.90;;;;;;5015609;28;20074;-70
2021/04/07 08:05:43;;;;;;;7.10;3.17;;;5.00;55.60;;;;;;5015724;28;20472;-69
2021/04/07 08:08:10;;;;;;;8.63;2.83;;;5.10;55.30;;;;;;5038572;28;20172;-70
2021/04/07 08:10:37;;;;;;;6.30;3.03;;;5.20;54.80;;;;;;5052002;28;20477;-70
2021/04/07 08:13:05;;;;;;;7.13;3.30;;;5.30;54.60;;;;;;5051124;28;20032;-67
2021/04/07 08:15:31;;;;;;;8.23;3.43;;;5.40;54.20;;;;;;5052322;28;20017;-67
2021/04/07 08:17:58;;;;;;;10.90;3.23;;;5.40;54.30;;;;;;5052142;28;20017;-69
2021/04/07 08:20:25;;;;;;;9.43;3.20;;;5.50;53.90;;;;;;5034588;28;20021;-67
2021/04/07 08:22:53;;;;;;;7.30;3.30;;;5.50;53.50;;;;;;5052720;28;20025;-68
2021/04/07 08:25:20;;;;;;;7.87;2.83;;;5.60;53.70;;;;;;5048643;28;20096;-69
2021/04/07 08:27:51;;;;;;;7.03;3.33;;;5.70;53.60;;;;;;5051835;28;20021;-70
2021/04/07 08:30:17;;;;;;;9.97;3.00;;;5.80;53.20;;;;;;5047351;28;20029;-69
2021/04/07 08:32:45;;;;;;;9.77;2.80;;;5.80;51.90;;;;;;5051614;28;20481;-69
2021/04/07 08:35:12;;;;;;;4.93;2.53;;;5.90;52.50;;;;;;5052144;28;20389;-68
2021/04/07 08:37:38;;;;;;;8.27;2.60;;;6.00;52.30;;;;;;5052936;28;20075;-68
2021/04/07 08:40:11;;;;;;;4.40;2.10;;;6.10;51.90;;;;;;5052624;28;20017;-69
2021/04/07 08:42:37;;;;;;;;;;;6.30;52.00;;;;;;5056562;28;20025;-69
2021/04/07 08:45:13;;;;;;;5.40;2.30;;;6.40;52.00;;;;;;5038822;28;19958;-68
2021/04/07 08:48:01;;;;;;;4.90;2.33;;;6.50;51.20;;;;;;5038794;28;20029;-68
2021/04/07 08:50:30;;;;;;;3.13;1.90;;;6.60;49.90;;;;;;5056398;28;20041;-69
2021/04/07 08:52:56;;;;;;;3.00;1.40;;;6.70;49.80;;;;;;5055127;28;20039;-68
2021/04/07 08:55:27;;;;;;;3.30;1.13;;;6.80;48.70;;;;;;5056422;28;20104;-69
2021/04/07 08:58:00;;;;;;;4.00;2.00;;;6.90;47.80;;;;;;5056387;28;20029;-67
2021/04/07 09:00:28;;;;;;;5.57;1.70;;;7.00;47.00;;;;;;5056159;28;20477;-67
2021/04/07 09:02:56;;;;;;;4.07;1.50;;;7.10;45.50;;;;;;5056492;28;20028;-68
2021/04/07 09:05:39;;;;;;;2.80;1.20;;;7.20;45.50;;;;;;5056428;28;20056;-67
2021/04/07 09:08:08;;;;;;;3.85;1.42;;;7.30;45.00;;;;;;5056400;28;20025;-68
2021/04/07 09:10:47;;;;;;;1.20;0.80;;;7.40;44.40;;;;;;5038375;28;20474;-69
2021/04/07 09:13:22;;;;;;;3.93;0.97;;;7.40;38.20;;;;;;5056159;28;20032;-68
2021/04/07 09:15:48;;;;;;;4.30;1.10;;;7.50;38.30;;;;;;5056846;28;20033;-68
2021/04/07 09:18:16;;;;;;;4.73;1.40;;;7.50;36.80;;;;;;5056356;28;20025;-69
2021/04/07 09:20:45;;;;;;;4.67;1.43;;;7.60;40.30;;;;;;5037880;28;20389;-69
2021/04/07 09:23:24;;;;;;;3.50;1.17;;;7.70;40.70;;;;;;5055970;28;20158;-69
2021/04/07 09:25:55;;;;;;;2.27;0.83;;;7.80;40.70;;;;;;5038181;28;20048;-69
2021/04/07 09:28:50;;;;;;;2.13;0.90;;;7.90;39.00;;;;;;5038061;28;20025;-70
2021/04/07 09:31:27;;;;;;;3.10;1.00;;;8.00;40.50;;;;;;5043024;28;20040;-69
2021/04/07 09:33:56;;;;;;;2.10;1.10;;;8.00;41.00;;;;;;5055633;28;20037;-69
2021/04/07 09:36:33;;;;;;;3.40;0.90;;;8.10;40.60;;;;;;5051922;28;20082;-69
2021/04/07 09:39:02;;;;;;;1.30;0.60;;;8.30;40.50;;;;;;5045563;28;20485;-70
2021/04/07 09:41:30;;;;;;;3.07;0.87;;;8.40;39.40;;;;;;5047806;28;20029;-69
2021/04/07 09:43:57;;;;;;;3.33;1.20;;;8.50;37.80;;;;;;5051191;28;20369;-68
2021/04/07 09:46:23;;;;;;;2.90;1.07;;;8.60;37.40;;;;;;5052708;28;20028;-68
2021/04/07 09:48:52;;;;;;;1.77;0.80;;;8.70;38.80;;;;;;5053514;28;20053;-68
2021/04/07 09:51:25;;;;;;;1.73;0.70;;;8.70;34.40;;;;;;5054550;28;20049;-69
2021/04/07 09:53:52;;;;;;;2.40;1.10;;;8.80;34.90;;;;;;5054739;28;20029;-68
2021/04/07 09:56:18;;;;;;;1.80;1.00;;;8.80;35.30;;;;;;5055379;28;20029;-68
2021/04/07 09:58:46;;;;;;;1.77;0.77;;;8.80;35.60;;;;;;5055077;28;20052;-68
2021/04/07 10:01:16;;;;;;;3.50;0.80;;;8.90;35.30;;;;;;5055091;28;20377;-68
2021/04/07 10:03:55;;;;;;;1.83;0.60;;;9.00;32.10;;;;;;5054922;28;20049;-68
2021/04/07 10:06:25;;;;;;;1.70;0.90;;;9.00;32.30;;;;;;5054950;28;20495;-68
2021/04/07 10:09:08;;;;;;;2.37;0.77;;;9.10;34.40;;;;;;5054844;28;20032;-68
2021/04/07 10:11:41;;;;;;;2.05;0.85;;;9.20;31.70;;;;;;5054999;28;20025;-68
2021/04/07 10:14:09;;;;;;;2.27;0.80;;;9.30;32.60;;;;;;5052260;28;20037;-69
2021/04/07 10:16:39;;;;;;;3.00;0.80;;;9.40;30.80;;;;;;5054033;28;20036;-69
2021/04/07 10:19:07;;;;;;;5.33;1.00;;;9.40;31.70;;;;;;5053574;28;20066;-68
2021/04/07 10:21:34;;;;;;;3.27;0.67;;;9.40;30.70;;;;;;5051569;28;20480;-68
2021/04/07 10:24:01;;;;;;;1.40;0.60;;;9.40;32.70;;;;;;5052066;28;20036;-68
2021/04/07 10:26:27;;;;;;;0.83;0.60;;;9.60;29.10;;;;;;5048803;28;20036;-68
2021/04/07 10:29:03;;;;;;;1.53;0.90;;;9.70;31.20;;;;;;5051233;28;20033;-68
2021/04/07 10:31:30;;;;;;;2.23;0.80;;;9.70;31.60;;;;;;5054515;28;20033;-69
2021/04/07 10:34:07;;;;;;;1.40;0.70;;;9.80;30.10;;;;;;5054254;28;20037;-70
2021/04/07 10:36:36;;;;;;;2.23;0.70;;;9.90;32.10;;;;;;5054414;28;20039;-69
2021/04/07 10:39:16;;;;;;;0.87;0.50;;;10.00;31.90;;;;;;5051421;28;20031;-69
2021/04/07 10:41:47;;;;;;;0.40;0.30;;;10.20;26.50;;;;;;5039701;28;20107;-69
2021/04/07 10:44:42;;;;;;;2.00;0.70;;;10.40;26.60;;;;;;5052446;28;20090;-69
2021/04/07 10:47:15;;;;;;;1.17;0.60;;;10.50;25.50;;;;;;5018707;28;20033;-68
2021/04/07 10:49:54;;;;;;;1.10;0.70;;;10.60;26.60;;;;;;5047585;28;20527;-68
2021/04/07 10:52:37;;;;;;;1.70;0.70;;;10.70;26.50;;;;;;5051605;28;20056;-68
2021/04/07 10:55:08;;;;;;;;;;;10.70;27.10;;;;;;5053750;28;20037;-68
2021/04/07 10:57:40;;;;;;;1.47;0.70;;;10.80;26.60;;;;;;5054172;28;21017;-68
2021/04/07 11:00:30;;;;;;;3.83;0.70;;;10.90;27.80;;;;;;5053463;28;20022;-68
2021/04/07 11:02:57;;;;;;;1.70;0.90;;;11.00;28.70;;;;;;5045086;28;20402;-69
2021/04/07 11:05:24;;;;;;;1.00;0.70;;;11.10;27.70;;;;;;5053121;28;20047;-69
2021/04/07 11:08:05;;;;;;;1.33;0.70;;;11.20;28.00;;;;;;5053761;28;20025;-70
2021/04/07 11:10:40;;;;;;;1.35;0.80;;;11.30;26.10;;;;;;5058088;28;20043;-68
2021/04/07 11:13:07;;;;;;;2.35;0.70;;;11.40;26.80;;;;;;5035897;28;20482;-68
2021/04/07 11:15:34;;;;;;;1.70;0.90;;;11.40;26.50;;;;;;5053639;28;20112;-68
2021/04/07 11:18:00;;;;;;;1.83;1.00;;;11.40;27.60;;;;;;5053595;28;20025;-68
2021/04/07 11:20:27;;;;;;;2.72;1.00;;;11.40;29.00;;;;;;5053569;28;20025;-68
2021/04/07 11:22:53;;;;;;;2.17;0.70;;;11.30;26.00;;;;;;5053682;28;20036;-68
2021/04/07 11:25:20;;;;;;;1.90;1.10;;;11.20;25.60;;;;;;5053773;28;20108;-68
2021/04/07 11:27:47;;;;;;;1.20;0.70;;;11.00;26.00;;;;;;5053509;28;20120;-68
2021/04/07 11:30:13;;;;;;;7.10;1.07;;;10.90;27.20;;;;;;5053578;28;20033;-69
2021/04/07 11:32:46;;;;;;;2.13;0.70;;;10.80;27.50;;;;;;5053038;28;20025;-67
2021/04/07 11:35:21;;;;;;;;;;;10.70;27.10;;;;;;5048913;28;20370;-67
2021/04/07 11:38:04;;;;;;;1.97;1.13;;;10.60;28.20;;;;;;5053323;28;20306;-67
2021/04/07 11:43:11;;;;;;;3.47;0.60;;;10.30;27.20;;;;;;5051533;28;20029;-67
2021/04/07 11:45:37;;;;;;;0.90;0.70;;;10.20;25.90;;;;;;5045949;28;20037;-66
2021/04/07 11:48:04;;;;;;;1.53;1.07;;;10.00;26.70;;;;;;5050867;28;20025;-67
2021/04/07 11:50:30;;;;;;;1.93;0.80;;;9.90;27.50;;;;;;5050388;28;20052;-66
2021/04/07 11:52:55;;;;;;;2.97;1.50;;;9.80;26.70;;;;;;5050191;28;20079;-67
2021/04/07 11:55:21;;;;;;;1.77;0.80;;;9.70;28.20;;;;;;5050796;28;20017;-67
2021/04/07 11:57:47;;;;;;;2.13;0.90;;;9.60;26.10;;;;;;5051970;28;20029;-66
2021/04/07 12:00:14;;;;;;;2.47;0.90;;;9.50;27.90;;;;;;5051403;28;20029;-67
2021/04/07 12:02:43;;;;;;;4.67;0.90;;;9.40;29.40;;;;;;5052032;28;20032;-66
2021/04/07 12:05:11;;;;;;;4.33;1.03;;;9.20;31.30;;;;;;5052219;28;20068;-66
2021/04/07 12:07:37;;;;;;;3.93;1.43;;;9.00;31.40;;;;;;5051763;28;20466;-66
2021/04/07 12:10:05;;;;;;;2.10;0.90;;;8.90;32.70;;;;;;5052054;28;20093;-68
2021/04/07 12:12:31;;;;;;;7.27;2.73;;;8.80;33.00;;;;;;5058611;28;20166;-70
2021/04/07 12:14:56;;;;;;;3.87;3.37;;;8.70;34.30;;;;;;5040906;28;20115;-67
2021/04/07 12:17:22;;;;;;;2.53;1.30;;;8.60;36.40;;;;;;5057372;28;20108;-65
2021/04/07 12:19:48;;;;;;;2.83;0.90;;;8.50;37.80;;;;;;5055884;28;20033;-68
2021/04/07 12:22:15;;;;;;;1.73;0.87;;;8.40;34.80;;;;;;5055907;28;20027;-67
2021/04/07 12:24:41;;;;;;;1.30;0.80;;;8.30;35.10;;;;;;5055544;28;20025;-68
2021/04/07 12:27:07;;;;;;;2.00;0.90;;;8.20;34.80;;;;;;5044723;28;20028;-67
2021/04/07 12:29:33;;;;;;;5.43;1.60;;;8.20;34.90;;;;;;5039112;28;20411;-68
2021/04/07 12:31:59;;;;;;;2.37;1.23;;;8.10;36.80;;;;;;5059145;28;20029;-67
2021/04/07 12:34:26;;;;;;;5.97;1.40;;;8.20;37.10;;;;;;5054661;28;20068;-67
2021/04/07 12:36:52;;;;;;;2.40;1.10;;;8.20;33.50;;;;;;5054401;28;20013;-66
2021/04/07 12:39:18;;;;;;;2.67;0.90;;;8.20;34.10;;;;;;5051910;28;20037;-66
2021/04/07 12:44:15;;;;;;;2.27;1.10;;;8.20;33.20;;;;;;5050191;28;20063;-66
2021/04/07 12:46:41;;;;;;;1.13;0.60;;;8.30;34.30;;;;;;5056595;28;20033;-66
2021/04/07 12:49:07;;;;;;;1.07;0.53;;;8.40;34.00;;;;;;5048507;28;20044;-66
2021/04/07 12:51:33;;;;;;;2.40;1.07;;;8.40;33.90;;;;;;5036244;28;20449;-66
2021/04/07 12:53:58;;;;;;;2.13;0.80;;;8.50;34.50;;;;;;5045774;28;20032;-66
2021/04/07 12:56:25;;;;;;;1.53;0.80;;;8.60;34.10;;;;;;5055983;28;20075;-67
2021/04/07 12:58:51;;;;;;;2.40;1.03;;;8.60;34.00;;;;;;5038588;28;20385;-67
2021/04/07 13:01:17;;;;;;;4.73;0.90;;;8.70;33.10;;;;;;5054908;28;20358;-66
2021/04/07 13:03:43;;;;;;;5.73;0.80;;;8.70;33.70;;;;;;5037843;28;20542;-66
2021/04/07 13:06:09;;;;;;;2.07;0.97;;;8.70;32.90;;;;;;5044057;28;20108;-66